Informes METAR cercanos


LEVC - Manises, Valencia, ESPAÑA
Distance from station: NNE 72km
Actualización: 23/11/2017 01:00
Despejado
Despejado
 Viento del O
Viento: O 6 km/h
Temperatura: 5°C
Rocío: 4°C
Humedad: 93%
Barómetro: 1016 hPa
Resumen: Despejado
Visibility: Mas de 10 km
2017/11/23 00:00 LEVC 230000Z 26003KT 240V300 CAVOK 05/04 Q1016 NOSIG
LEAL - El Altet, Alicante, ESPAÑA
Distance from station: S 70km
Actualización: 23/11/2017 01:00
Despejado
Despejado
 Viento del SO
Viento: SO 7 km/h
Temperatura: 9°C
Sensacion frio: 8°C
Rocío: 6°C
Humedad: 82%
Barómetro: 1016 hPa
Resumen: Despejado
Visibility: Mas de 10 km
2017/11/23 00:00 LEAL 230000Z 23004KT 210V290 CAVOK 09/06 Q1016 NOSIG
 
LELC - San Javier, Murcia, ESPAÑA
Distance from station: SSO 188km
Actualización: 22/11/2017 22:00
NOT Current
Despejado
Despejado
 Viento del O
Viento: O 7 km/h
Temperatura: 9°C
Sensacion frio: 8°C
Rocío: 8°C
Humedad: 94%
Barómetro: 1016 hPa
Resumen: Despejado
Visibility: Mas de 10 km
2017/11/22 21:00 LELC 222100Z 27004KT CAVOK 09/08 Q1016 NOSIG
LEAB - Los Llanos, Albacete, ESPAÑA
Distance from station: O 143km
Actualización: 23/11/2017 01:00
Despejado
Despejado
 Viento del SE
Viento: SE 7 km/h
Temperatura: 0°C
Sensacion frio: -3°C
Rocío: -5°C
Humedad: 69%
Barómetro: 1017 hPa
Resumen: Despejado
Visibility: Mas de 10 km
2017/11/23 00:00 LEAB 230000Z 14004KT CAVOK M00/M05 Q1017 NOSIG